sensor_id;sensor_type;location;lat;lon;timestamp;P1;durP1;ratioP1;P2;durP2;ratioP2
61572;SDS011;47465;43.094;12.434;2022-09-14T00:00:26;9.05;;;4.20;;
61572;SDS011;47465;43.094;12.434;2022-09-14T00:02:52;8.27;;;4.03;;
61572;SDS011;47465;43.094;12.434;2022-09-14T00:05:20;5.97;;;3.80;;
61572;SDS011;47465;43.094;12.434;2022-09-14T00:07:46;7.07;;;4.25;;
61572;SDS011;47465;43.094;12.434;2022-09-14T00:10:12;6.90;;;3.80;;
61572;SDS011;47465;43.094;12.434;2022-09-14T00:12:37;6.25;;;4.18;;
61572;SDS011;47465;43.094;12.434;2022-09-14T00:15:03;8.13;;;4.28;;
61572;SDS011;47465;43.094;12.434;2022-09-14T00:17:31;6.68;;;4.25;;
61572;SDS011;47465;43.094;12.434;2022-09-14T00:19:57;9.02;;;4.55;;
61572;SDS011;47465;43.094;12.434;2022-09-14T00:22:24;7.68;;;4.22;;
61572;SDS011;47465;43.094;12.434;2022-09-14T00:24:50;6.25;;;4.13;;
61572;SDS011;47465;43.094;12.434;2022-09-14T00:27:16;8.65;;;4.30;;
61572;SDS011;47465;43.094;12.434;2022-09-14T00:29:42;5.93;;;4.30;;
61572;SDS011;47465;43.094;12.434;2022-09-14T00:32:07;8.43;;;4.30;;
61572;SDS011;47465;43.094;12.434;2022-09-14T00:34:33;7.70;;;4.38;;
61572;SDS011;47465;43.094;12.434;2022-09-14T00:36:59;9.43;;;4.50;;
61572;SDS011;47465;43.094;12.434;2022-09-14T00:39:26;10.20;;;4.20;;
61572;SDS011;47465;43.094;12.434;2022-09-14T00:41:53;7.00;;;4.13;;
61572;SDS011;47465;43.094;12.434;2022-09-14T00:47:22;6.18;;;4.32;;
61572;SDS011;47465;43.094;12.434;2022-09-14T00:49:48;6.63;;;4.43;;
61572;SDS011;47465;43.094;12.434;2022-09-14T00:52:15;8.27;;;4.40;;
61572;SDS011;47465;43.094;12.434;2022-09-14T00:57:11;6.05;;;4.40;;
61572;SDS011;47465;43.094;12.434;2022-09-14T00:59:38;9.48;;;4.43;;
61572;SDS011;47465;43.094;12.434;2022-09-14T01:02:06;5.70;;;4.25;;
61572;SDS011;47465;43.094;12.434;2022-09-14T01:04:33;7.38;;;4.45;;
61572;SDS011;47465;43.094;12.434;2022-09-14T01:07:02;7.03;;;4.20;;
61572;SDS011;47465;43.094;12.434;2022-09-14T01:09:36;7.28;;;4.30;;
61572;SDS011;47465;43.094;12.434;2022-09-14T01:12:11;7.30;;;4.25;;
61572;SDS011;47465;43.094;12.434;2022-09-14T01:14:46;7.72;;;4.18;;
61572;SDS011;47465;43.094;12.434;2022-09-14T01:17:23;7.63;;;4.30;;
61572;SDS011;47465;43.094;12.434;2022-09-14T01:22:41;8.75;;;4.45;;
61572;SDS011;47465;43.094;12.434;2022-09-14T01:25:15;7.75;;;4.53;;
61572;SDS011;47465;43.094;12.434;2022-09-14T01:27:54;7.53;;;4.35;;
61572;SDS011;47465;43.094;12.434;2022-09-14T01:30:25;8.85;;;4.20;;
61572;SDS011;47465;43.094;12.434;2022-09-14T01:32:53;8.40;;;4.30;;
61572;SDS011;47465;43.094;12.434;2022-09-14T01:35:25;8.07;;;4.28;;
61572;SDS011;47465;43.094;12.434;2022-09-14T01:37:56;5.30;;;4.07;;
61572;SDS011;47465;43.094;12.434;2022-09-14T01:40:27;7.75;;;4.50;;
61572;SDS011;47465;43.094;12.434;2022-09-14T01:42:59;5.70;;;4.40;;
61572;SDS011;47465;43.094;12.434;2022-09-14T01:45:28;8.25;;;4.30;;
61572;SDS011;47465;43.094;12.434;2022-09-14T01:47:56;5.80;;;4.20;;
61572;SDS011;47465;43.094;12.434;2022-09-14T01:50:27;8.77;;;4.47;;
61572;SDS011;47465;43.094;12.434;2022-09-14T01:52:58;9.60;;;4.75;;
61572;SDS011;47465;43.094;12.434;2022-09-14T01:55:31;7.63;;;4.53;;
61572;SDS011;47465;43.094;12.434;2022-09-14T01:58:03;7.32;;;4.70;;
61572;SDS011;47465;43.094;12.434;2022-09-14T02:00:34;7.75;;;4.65;;
61572;SDS011;47465;43.094;12.434;2022-09-14T02:03:05;8.23;;;4.82;;
61572;SDS011;47465;43.094;12.434;2022-09-14T02:05:36;9.20;;;4.95;;
61572;SDS011;47465;43.094;12.434;2022-09-14T02:08:07;6.10;;;4.65;;
61572;SDS011;47465;43.094;12.434;2022-09-14T02:10:33;10.73;;;5.05;;
61572;SDS011;47465;43.094;12.434;2022-09-14T02:12:59;9.40;;;5.25;;
61572;SDS011;47465;43.094;12.434;2022-09-14T02:15:27;10.43;;;4.55;;
61572;SDS011;47465;43.094;12.434;2022-09-14T02:17:53;9.70;;;4.82;;
61572;SDS011;47465;43.094;12.434;2022-09-14T02:20:21;11.10;;;5.13;;
61572;SDS011;47465;43.094;12.434;2022-09-14T02:22:49;11.10;;;5.25;;
61572;SDS011;47465;43.094;12.434;2022-09-14T02:25:16;8.10;;;4.90;;
61572;SDS011;47465;43.094;12.434;2022-09-14T02:27:43;6.28;;;4.38;;
61572;SDS011;47465;43.094;12.434;2022-09-14T02:30:09;7.93;;;5.20;;
61572;SDS011;47465;43.094;12.434;2022-09-14T02:32:39;9.23;;;5.38;;
61572;SDS011;47465;43.094;12.434;2022-09-14T02:35:14;7.05;;;4.90;;
61572;SDS011;47465;43.094;12.434;2022-09-14T02:37:46;6.40;;;5.00;;
61572;SDS011;47465;43.094;12.434;2022-09-14T02:40:21;6.47;;;4.38;;
61572;SDS011;47465;43.094;12.434;2022-09-14T02:42:54;7.68;;;4.43;;
61572;SDS011;47465;43.094;12.434;2022-09-14T02:45:27;9.15;;;5.15;;
61572;SDS011;47465;43.094;12.434;2022-09-14T02:48:02;10.73;;;4.97;;
61572;SDS011;47465;43.094;12.434;2022-09-14T02:50:35;7.00;;;4.75;;
61572;SDS011;47465;43.094;12.434;2022-09-14T02:53:07;8.50;;;5.13;;
61572;SDS011;47465;43.094;12.434;2022-09-14T02:55:39;9.02;;;4.75;;
61572;SDS011;47465;43.094;12.434;2022-09-14T02:58:10;9.70;;;7.00;;
61572;SDS011;47465;43.094;12.434;2022-09-14T03:00:38;8.93;;;5.10;;
61572;SDS011;47465;43.094;12.434;2022-09-14T03:03:08;8.73;;;5.03;;
61572;SDS011;47465;43.094;12.434;2022-09-14T03:05:35;9.52;;;5.00;;
61572;SDS011;47465;43.094;12.434;2022-09-14T03:08:01;8.52;;;5.10;;
61572;SDS011;47465;43.094;12.434;2022-09-14T03:10:28;10.65;;;5.25;;
61572;SDS011;47465;43.094;12.434;2022-09-14T03:12:55;9.00;;;5.38;;
61572;SDS011;47465;43.094;12.434;2022-09-14T03:15:21;6.60;;;5.03;;
61572;SDS011;47465;43.094;12.434;2022-09-14T03:17:47;8.10;;;5.35;;
61572;SDS011;47465;43.094;12.434;2022-09-14T03:20:15;10.32;;;5.25;;
61572;SDS011;47465;43.094;12.434;2022-09-14T03:22:43;9.50;;;5.18;;
61572;SDS011;47465;43.094;12.434;2022-09-14T03:25:09;9.40;;;5.18;;
61572;SDS011;47465;43.094;12.434;2022-09-14T03:27:35;7.70;;;4.72;;
61572;SDS011;47465;43.094;12.434;2022-09-14T03:30:01;8.07;;;4.93;;
61572;SDS011;47465;43.094;12.434;2022-09-14T03:32:27;7.38;;;5.00;;
61572;SDS011;47465;43.094;12.434;2022-09-14T03:34:53;9.55;;;5.88;;
61572;SDS011;47465;43.094;12.434;2022-09-14T03:37:20;10.63;;;5.82;;
61572;SDS011;47465;43.094;12.434;2022-09-14T03:39:46;11.32;;;5.68;;
61572;SDS011;47465;43.094;12.434;2022-09-14T03:42:12;11.50;;;5.47;;
61572;SDS011;47465;43.094;12.434;2022-09-14T03:44:37;10.45;;;5.53;;
61572;SDS011;47465;43.094;12.434;2022-09-14T03:47:03;8.00;;;5.40;;
61572;SDS011;47465;43.094;12.434;2022-09-14T03:49:29;8.95;;;5.78;;
61572;SDS011;47465;43.094;12.434;2022-09-14T03:51:55;8.75;;;5.93;;
61572;SDS011;47465;43.094;12.434;2022-09-14T03:54:22;11.00;;;6.00;;
61572;SDS011;47465;43.094;12.434;2022-09-14T03:56:50;9.38;;;5.63;;
61572;SDS011;47465;43.094;12.434;2022-09-14T03:59:16;11.75;;;6.07;;
61572;SDS011;47465;43.094;12.434;2022-09-14T04:01:42;9.40;;;5.78;;
61572;SDS011;47465;43.094;12.434;2022-09-14T04:04:07;10.93;;;6.18;;
61572;SDS011;47465;43.094;12.434;2022-09-14T04:06:33;9.75;;;6.10;;
61572;SDS011;47465;43.094;12.434;2022-09-14T04:08:59;11.73;;;6.03;;
61572;SDS011;47465;43.094;12.434;2022-09-14T04:11:26;12.25;;;6.20;;
61572;SDS011;47465;43.094;12.434;2022-09-14T04:13:53;9.90;;;6.63;;
61572;SDS011;47465;43.094;12.434;2022-09-14T04:16:19;10.23;;;6.15;;
61572;SDS011;47465;43.094;12.434;2022-09-14T04:18:45;13.02;;;6.53;;
61572;SDS011;47465;43.094;12.434;2022-09-14T04:21:12;12.73;;;6.50;;
61572;SDS011;47465;43.094;12.434;2022-09-14T04:23:39;10.20;;;6.20;;
61572;SDS011;47465;43.094;12.434;2022-09-14T04:26:08;13.32;;;6.60;;
61572;SDS011;47465;43.094;12.434;2022-09-14T04:28:38;10.25;;;6.05;;
61572;SDS011;47465;43.094;12.434;2022-09-14T04:31:04;14.25;;;6.85;;
61572;SDS011;47465;43.094;12.434;2022-09-14T04:33:31;11.75;;;5.97;;
61572;SDS011;47465;43.094;12.434;2022-09-14T04:35:58;12.70;;;7.00;;
61572;SDS011;47465;43.094;12.434;2022-09-14T04:38:26;9.30;;;6.40;;
61572;SDS011;47465;43.094;12.434;2022-09-14T04:40:52;11.73;;;6.28;;
61572;SDS011;47465;43.094;12.434;2022-09-14T04:43:18;9.75;;;6.65;;
61572;SDS011;47465;43.094;12.434;2022-09-14T04:45:45;9.32;;;6.45;;
61572;SDS011;47465;43.094;12.434;2022-09-14T04:48:11;13.77;;;6.72;;
61572;SDS011;47465;43.094;12.434;2022-09-14T04:50:37;12.68;;;7.30;;
61572;SDS011;47465;43.094;12.434;2022-09-14T04:53:03;9.73;;;6.10;;
61572;SDS011;47465;43.094;12.434;2022-09-14T04:55:29;16.17;;;6.50;;
61572;SDS011;47465;43.094;12.434;2022-09-14T04:57:55;10.73;;;5.82;;
61572;SDS011;47465;43.094;12.434;2022-09-14T05:00:20;9.32;;;5.32;;
61572;SDS011;47465;43.094;12.434;2022-09-14T05:02:47;10.43;;;6.10;;
61572;SDS011;47465;43.094;12.434;2022-09-14T05:05:13;12.25;;;5.78;;
61572;SDS011;47465;43.094;12.434;2022-09-14T05:07:39;10.02;;;5.78;;
61572;SDS011;47465;43.094;12.434;2022-09-14T05:10:05;9.90;;;5.72;;
61572;SDS011;47465;43.094;12.434;2022-09-14T05:12:32;9.38;;;5.75;;
61572;SDS011;47465;43.094;12.434;2022-09-14T05:14:58;10.68;;;5.90;;
61572;SDS011;47465;43.094;12.434;2022-09-14T05:17:24;14.20;;;5.97;;
61572;SDS011;47465;43.094;12.434;2022-09-14T05:19:51;10.73;;;5.47;;
61572;SDS011;47465;43.094;12.434;2022-09-14T05:22:17;11.05;;;5.45;;
61572;SDS011;47465;43.094;12.434;2022-09-14T05:24:45;9.77;;;5.93;;
61572;SDS011;47465;43.094;12.434;2022-09-14T05:27:11;12.60;;;5.75;;
61572;SDS011;47465;43.094;12.434;2022-09-14T05:29:37;11.55;;;6.20;;
61572;SDS011;47465;43.094;12.434;2022-09-14T05:32:04;12.98;;;5.80;;
61572;SDS011;47465;43.094;12.434;2022-09-14T05:34:30;15.95;;;5.60;;
61572;SDS011;47465;43.094;12.434;2022-09-14T05:36:57;11.32;;;6.00;;
61572;SDS011;47465;43.094;12.434;2022-09-14T05:39:23;10.45;;;5.45;;
61572;SDS011;47465;43.094;12.434;2022-09-14T05:41:49;11.75;;;5.43;;
61572;SDS011;47465;43.094;12.434;2022-09-14T05:44:16;9.13;;;5.75;;
61572;SDS011;47465;43.094;12.434;2022-09-14T05:46:42;9.80;;;5.90;;
61572;SDS011;47465;43.094;12.434;2022-09-14T05:49:07;10.52;;;6.05;;
61572;SDS011;47465;43.094;12.434;2022-09-14T05:51:33;10.23;;;5.50;;
61572;SDS011;47465;43.094;12.434;2022-09-14T05:54:00;18.17;;;7.75;;
61572;SDS011;47465;43.094;12.434;2022-09-14T05:56:28;15.60;;;6.90;;
61572;SDS011;47465;43.094;12.434;2022-09-14T05:58:55;12.85;;;6.80;;
61572;SDS011;47465;43.094;12.434;2022-09-14T06:01:24;11.00;;;6.22;;
61572;SDS011;47465;43.094;12.434;2022-09-14T06:03:52;12.50;;;7.05;;
61572;SDS011;47465;43.094;12.434;2022-09-14T06:06:18;14.60;;;7.10;;
61572;SDS011;47465;43.094;12.434;2022-09-14T06:08:45;13.95;;;7.15;;
61572;SDS011;47465;43.094;12.434;2022-09-14T06:11:16;13.15;;;6.68;;
61572;SDS011;47465;43.094;12.434;2022-09-14T06:13:43;10.75;;;6.82;;
61572;SDS011;47465;43.094;12.434;2022-09-14T06:16:12;12.88;;;7.10;;
61572;SDS011;47465;43.094;12.434;2022-09-14T06:18:39;12.93;;;6.90;;
61572;SDS011;47465;43.094;12.434;2022-09-14T06:21:08;12.18;;;6.90;;
61572;SDS011;47465;43.094;12.434;2022-09-14T06:23:35;11.18;;;6.80;;
61572;SDS011;47465;43.094;12.434;2022-09-14T06:26:01;11.38;;;6.95;;
61572;SDS011;47465;43.094;12.434;2022-09-14T06:28:30;15.10;;;7.28;;
61572;SDS011;47465;43.094;12.434;2022-09-14T06:30:57;12.07;;;6.00;;
61572;SDS011;47465;43.094;12.434;2022-09-14T06:33:23;12.95;;;5.82;;
61572;SDS011;47465;43.094;12.434;2022-09-14T06:35:53;10.50;;;5.97;;
61572;SDS011;47465;43.094;12.434;2022-09-14T06:38:19;11.07;;;6.13;;
61572;SDS011;47465;43.094;12.434;2022-09-14T06:40:49;9.75;;;5.85;;
61572;SDS011;47465;43.094;12.434;2022-09-14T06:43:16;11.02;;;6.93;;
61572;SDS011;47465;43.094;12.434;2022-09-14T06:45:43;9.50;;;6.65;;
61572;SDS011;47465;43.094;12.434;2022-09-14T06:48:18;11.05;;;6.03;;
61572;SDS011;47465;43.094;12.434;2022-09-14T06:50:44;10.90;;;5.70;;
61572;SDS011;47465;43.094;12.434;2022-09-14T06:53:10;13.02;;;5.88;;
61572;SDS011;47465;43.094;12.434;2022-09-14T06:55:35;12.85;;;6.22;;
61572;SDS011;47465;43.094;12.434;2022-09-14T06:58:01;11.40;;;5.90;;
61572;SDS011;47465;43.094;12.434;2022-09-14T07:00:27;10.50;;;6.50;;
61572;SDS011;47465;43.094;12.434;2022-09-14T07:02:55;10.98;;;5.25;;
61572;SDS011;47465;43.094;12.434;2022-09-14T07:05:21;13.57;;;6.03;;
61572;SDS011;47465;43.094;12.434;2022-09-14T07:07:49;13.63;;;6.10;;
61572;SDS011;47465;43.094;12.434;2022-09-14T07:10:16;9.85;;;6.05;;
61572;SDS011;47465;43.094;12.434;2022-09-14T07:12:42;8.73;;;5.28;;
61572;SDS011;47465;43.094;12.434;2022-09-14T07:15:08;12.27;;;5.82;;
61572;SDS011;47465;43.094;12.434;2022-09-14T07:17:34;9.30;;;5.50;;
61572;SDS011;47465;43.094;12.434;2022-09-14T07:20:02;13.32;;;6.25;;
61572;SDS011;47465;43.094;12.434;2022-09-14T07:22:31;20.27;;;6.47;;
61572;SDS011;47465;43.094;12.434;2022-09-14T07:24:57;18.33;;;6.88;;
61572;SDS011;47465;43.094;12.434;2022-09-14T07:27:23;17.50;;;7.78;;
61572;SDS011;47465;43.094;12.434;2022-09-14T07:29:49;21.48;;;8.55;;
61572;SDS011;47465;43.094;12.434;2022-09-14T07:32:15;12.93;;;7.40;;
61572;SDS011;47465;43.094;12.434;2022-09-14T07:34:40;14.90;;;8.02;;
61572;SDS011;47465;43.094;12.434;2022-09-14T07:37:08;25.58;;;9.05;;
61572;SDS011;47465;43.094;12.434;2022-09-14T07:39:34;14.73;;;7.80;;
61572;SDS011;47465;43.094;12.434;2022-09-14T07:42:00;18.23;;;7.97;;
61572;SDS011;47465;43.094;12.434;2022-09-14T07:44:26;21.23;;;8.40;;
61572;SDS011;47465;43.094;12.434;2022-09-14T07:46:53;19.75;;;7.80;;
61572;SDS011;47465;43.094;12.434;2022-09-14T07:49:18;16.67;;;6.97;;
61572;SDS011;47465;43.094;12.434;2022-09-14T07:51:46;13.25;;;7.00;;
61572;SDS011;47465;43.094;12.434;2022-09-14T07:54:14;13.10;;;6.85;;
61572;SDS011;47465;43.094;12.434;2022-09-14T07:56:42;13.07;;;5.75;;
61572;SDS011;47465;43.094;12.434;2022-09-14T07:59:09;20.33;;;6.20;;
61572;SDS011;47465;43.094;12.434;2022-09-14T08:01:35;20.52;;;6.28;;
61572;SDS011;47465;43.094;12.434;2022-09-14T08:04:02;15.65;;;5.90;;
61572;SDS011;47465;43.094;12.434;2022-09-14T08:06:28;13.10;;;5.93;;
61572;SDS011;47465;43.094;12.434;2022-09-14T08:08:54;12.13;;;5.47;;
61572;SDS011;47465;43.094;12.434;2022-09-14T08:11:23;17.83;;;5.90;;
61572;SDS011;47465;43.094;12.434;2022-09-14T08:13:51;11.98;;;5.13;;
61572;SDS011;47465;43.094;12.434;2022-09-14T08:16:18;14.30;;;5.40;;
61572;SDS011;47465;43.094;12.434;2022-09-14T08:18:45;12.27;;;5.68;;
61572;SDS011;47465;43.094;12.434;2022-09-14T08:21:12;16.63;;;5.18;;
61572;SDS011;47465;43.094;12.434;2022-09-14T08:23:40;13.93;;;5.68;;
61572;SDS011;47465;43.094;12.434;2022-09-14T08:26:07;13.65;;;6.82;;
61572;SDS011;47465;43.094;12.434;2022-09-14T08:28:35;11.25;;;4.53;;
61572;SDS011;47465;43.094;12.434;2022-09-14T08:31:03;11.77;;;4.60;;
61572;SDS011;47465;43.094;12.434;2022-09-14T08:33:31;9.45;;;4.85;;
61572;SDS011;47465;43.094;12.434;2022-09-14T08:35:57;15.70;;;4.78;;
61572;SDS011;47465;43.094;12.434;2022-09-14T08:38:23;12.98;;;5.22;;
61572;SDS011;47465;43.094;12.434;2022-09-14T08:40:49;15.52;;;5.20;;
61572;SDS011;47465;43.094;12.434;2022-09-14T08:43:15;14.98;;;5.55;;
61572;SDS011;47465;43.094;12.434;2022-09-14T08:45:44;15.65;;;5.20;;
61572;SDS011;47465;43.094;12.434;2022-09-14T08:48:14;10.55;;;5.15;;
61572;SDS011;47465;43.094;12.434;2022-09-14T08:50:47;12.27;;;5.43;;
61572;SDS011;47465;43.094;12.434;2022-09-14T08:53:18;12.02;;;5.45;;
61572;SDS011;47465;43.094;12.434;2022-09-14T08:55:47;16.10;;;5.80;;
61572;SDS011;47465;43.094;12.434;2022-09-14T08:58:19;12.57;;;5.07;;
61572;SDS011;47465;43.094;12.434;2022-09-14T09:00:56;11.68;;;5.15;;
61572;SDS011;47465;43.094;12.434;2022-09-14T09:03:45;12.57;;;4.78;;
61572;SDS011;47465;43.094;12.434;2022-09-14T09:06:27;11.55;;;4.53;;
61572;SDS011;47465;43.094;12.434;2022-09-14T09:08:59;13.40;;;5.05;;
61572;SDS011;47465;43.094;12.434;2022-09-14T09:11:33;14.73;;;5.53;;
61572;SDS011;47465;43.094;12.434;2022-09-14T09:14:02;15.10;;;5.30;;
61572;SDS011;47465;43.094;12.434;2022-09-14T09:16:36;9.63;;;4.88;;
61572;SDS011;47465;43.094;12.434;2022-09-14T09:19:04;17.37;;;5.50;;
61572;SDS011;47465;43.094;12.434;2022-09-14T09:21:37;14.85;;;5.53;;
61572;SDS011;47465;43.094;12.434;2022-09-14T09:24:11;12.25;;;5.53;;
61572;SDS011;47465;43.094;12.434;2022-09-14T09:26:42;13.10;;;6.00;;
61572;SDS011;47465;43.094;12.434;2022-09-14T09:29:08;13.70;;;6.25;;
61572;SDS011;47465;43.094;12.434;2022-09-14T09:31:37;14.60;;;5.70;;
61572;SDS011;47465;43.094;12.434;2022-09-14T09:34:08;12.70;;;4.82;;
61572;SDS011;47465;43.094;12.434;2022-09-14T09:36:37;8.35;;;4.70;;
61572;SDS011;47465;43.094;12.434;2022-09-14T09:39:06;15.65;;;5.43;;
61572;SDS011;47465;43.094;12.434;2022-09-14T09:41:36;13.23;;;6.10;;
61572;SDS011;47465;43.094;12.434;2022-09-14T09:44:09;10.73;;;5.18;;
61572;SDS011;47465;43.094;12.434;2022-09-14T09:46:38;9.85;;;5.10;;
61572;SDS011;47465;43.094;12.434;2022-09-14T09:49:13;10.98;;;4.95;;
61572;SDS011;47465;43.094;12.434;2022-09-14T09:51:42;14.00;;;5.00;;
61572;SDS011;47465;43.094;12.434;2022-09-14T09:54:16;10.73;;;5.60;;
61572;SDS011;47465;43.094;12.434;2022-09-14T09:56:50;12.38;;;5.75;;
61572;SDS011;47465;43.094;12.434;2022-09-14T09:59:21;11.90;;;5.10;;
61572;SDS011;47465;43.094;12.434;2022-09-14T10:01:53;11.05;;;4.75;;
61572;SDS011;47465;43.094;12.434;2022-09-14T10:04:21;9.82;;;4.57;;
61572;SDS011;47465;43.094;12.434;2022-09-14T10:06:52;10.02;;;4.90;;
61572;SDS011;47465;43.094;12.434;2022-09-14T10:09:19;9.68;;;4.80;;
61572;SDS011;47465;43.094;12.434;2022-09-14T10:11:47;11.15;;;4.30;;
61572;SDS011;47465;43.094;12.434;2022-09-14T10:14:22;8.20;;;3.72;;
61572;SDS011;47465;43.094;12.434;2022-09-14T10:16:54;8.95;;;4.00;;
61572;SDS011;47465;43.094;12.434;2022-09-14T10:19:29;6.90;;;3.38;;
61572;SDS011;47465;43.094;12.434;2022-09-14T10:22:01;10.75;;;4.47;;
61572;SDS011;47465;43.094;12.434;2022-09-14T10:24:29;10.40;;;3.80;;
61572;SDS011;47465;43.094;12.434;2022-09-14T10:29:26;10.93;;;3.60;;
61572;SDS011;47465;43.094;12.434;2022-09-14T10:32:00;7.55;;;4.05;;
61572;SDS011;47465;43.094;12.434;2022-09-14T10:34:31;8.40;;;3.35;;
61572;SDS011;47465;43.094;12.434;2022-09-14T10:37:00;8.52;;;3.65;;
61572;SDS011;47465;43.094;12.434;2022-09-14T10:39:37;11.55;;;3.75;;
61572;SDS011;47465;43.094;12.434;2022-09-14T10:42:09;7.70;;;3.50;;
61572;SDS011;47465;43.094;12.434;2022-09-14T10:44:47;8.60;;;3.72;;
61572;SDS011;47465;43.094;12.434;2022-09-14T10:50:26;7.97;;;3.47;;
61572;SDS011;47465;43.094;12.434;2022-09-14T10:53:02;7.30;;;3.47;;
61572;SDS011;47465;43.094;12.434;2022-09-14T10:55:40;7.30;;;3.80;;
61572;SDS011;47465;43.094;12.434;2022-09-14T10:58:18;9.98;;;3.95;;
61572;SDS011;47465;43.094;12.434;2022-09-14T11:01:00;10.07;;;3.58;;
61572;SDS011;47465;43.094;12.434;2022-09-14T11:06:22;7.65;;;3.33;;
61572;SDS011;47465;43.094;12.434;2022-09-14T11:08:59;6.55;;;2.83;;
61572;SDS011;47465;43.094;12.434;2022-09-14T11:11:33;6.18;;;2.85;;
61572;SDS011;47465;43.094;12.434;2022-09-14T11:14:15;4.50;;;2.60;;
61572;SDS011;47465;43.094;12.434;2022-09-14T11:17:08;5.75;;;2.65;;
61572;SDS011;47465;43.094;12.434;2022-09-14T11:19:48;8.07;;;2.95;;
61572;SDS011;47465;43.094;12.434;2022-09-14T11:22:25;6.80;;;2.90;;
61572;SDS011;47465;43.094;12.434;2022-09-14T11:25:00;7.18;;;3.15;;
61572;SDS011;47465;43.094;12.434;2022-09-14T11:27:31;10.88;;;3.33;;
61572;SDS011;47465;43.094;12.434;2022-09-14T11:30:04;6.15;;;2.80;;
61572;SDS011;47465;43.094;12.434;2022-09-14T11:32:36;8.15;;;3.20;;
61572;SDS011;47465;43.094;12.434;2022-09-14T11:35:12;8.85;;;3.08;;
61572;SDS011;47465;43.094;12.434;2022-09-14T11:37:44;7.15;;;3.20;;
61572;SDS011;47465;43.094;12.434;2022-09-14T11:40:18;12.38;;;3.70;;
61572;SDS011;47465;43.094;12.434;2022-09-14T11:42:49;7.03;;;3.70;;
61572;SDS011;47465;43.094;12.434;2022-09-14T11:45:20;6.53;;;3.60;;
61572;SDS011;47465;43.094;12.434;2022-09-14T11:47:52;8.02;;;3.70;;
61572;SDS011;47465;43.094;12.434;2022-09-14T11:50:26;9.52;;;3.33;;
61572;SDS011;47465;43.094;12.434;2022-09-14T11:52:58;7.60;;;3.67;;
61572;SDS011;47465;43.094;12.434;2022-09-14T11:55:27;7.28;;;3.63;;
61572;SDS011;47465;43.094;12.434;2022-09-14T11:57:54;8.02;;;3.95;;
61572;SDS011;47465;43.094;12.434;2022-09-14T12:03:15;8.55;;;4.22;;
61572;SDS011;47465;43.094;12.434;2022-09-14T12:05:44;5.88;;;3.75;;
61572;SDS011;47465;43.094;12.434;2022-09-14T12:13:57;9.40;;;4.30;;
61572;SDS011;47465;43.094;12.434;2022-09-14T12:19:38;9.68;;;4.00;;
61572;SDS011;47465;43.094;12.434;2022-09-14T12:25:03;5.95;;;3.72;;
61572;SDS011;47465;43.094;12.434;2022-09-14T12:27:39;8.68;;;3.80;;
61572;SDS011;47465;43.094;12.434;2022-09-14T12:32:58;8.90;;;3.75;;
61572;SDS011;47465;43.094;12.434;2022-09-14T12:35:38;8.80;;;4.13;;
61572;SDS011;47465;43.094;12.434;2022-09-14T12:44:31;6.40;;;3.80;;
61572;SDS011;47465;43.094;12.434;2022-09-14T12:47:12;7.85;;;3.80;;
61572;SDS011;47465;43.094;12.434;2022-09-14T12:50:22;5.80;;;3.65;;
61572;SDS011;47465;43.094;12.434;2022-09-14T12:53:01;7.82;;;3.65;;
61572;SDS011;47465;43.094;12.434;2022-09-14T12:55:46;8.98;;;3.38;;
61572;SDS011;47465;43.094;12.434;2022-09-14T12:58:22;6.07;;;3.58;;
61572;SDS011;47465;43.094;12.434;2022-09-14T13:01:01;7.30;;;3.58;;
61572;SDS011;47465;43.094;12.434;2022-09-14T13:03:46;12.60;;;3.92;;
61572;SDS011;47465;43.094;12.434;2022-09-14T13:06:14;10.25;;;3.58;;
61572;SDS011;47465;43.094;12.434;2022-09-14T13:08:45;8.68;;;3.60;;
61572;SDS011;47465;43.094;12.434;2022-09-14T13:11:20;8.98;;;3.42;;
61572;SDS011;47465;43.094;12.434;2022-09-14T13:13:48;8.57;;;3.95;;
61572;SDS011;47465;43.094;12.434;2022-09-14T13:16:26;12.43;;;4.15;;
61572;SDS011;47465;43.094;12.434;2022-09-14T13:19:01;9.63;;;4.28;;
61572;SDS011;47465;43.094;12.434;2022-09-14T13:23:56;9.18;;;3.83;;
61572;SDS011;47465;43.094;12.434;2022-09-14T13:26:22;8.10;;;3.85;;
61572;SDS011;47465;43.094;12.434;2022-09-14T13:28:51;7.88;;;3.90;;
61572;SDS011;47465;43.094;12.434;2022-09-14T13:31:22;7.53;;;3.95;;
61572;SDS011;47465;43.094;12.434;2022-09-14T13:33:53;8.20;;;3.67;;
61572;SDS011;47465;43.094;12.434;2022-09-14T13:36:20;12.52;;;4.20;;
61572;SDS011;47465;43.094;12.434;2022-09-14T13:38:48;6.75;;;3.88;;
61572;SDS011;47465;43.094;12.434;2022-09-14T13:41:15;8.07;;;3.75;;
61572;SDS011;47465;43.094;12.434;2022-09-14T13:46:09;9.40;;;3.95;;
61572;SDS011;47465;43.094;12.434;2022-09-14T13:48:37;15.38;;;4.22;;
61572;SDS011;47465;43.094;12.434;2022-09-14T13:51:05;9.48;;;3.90;;
61572;SDS011;47465;43.094;12.434;2022-09-14T13:53:35;5.65;;;3.47;;
61572;SDS011;47465;43.094;12.434;2022-09-14T13:56:14;6.47;;;4.05;;
61572;SDS011;47465;43.094;12.434;2022-09-14T13:58:41;11.30;;;4.22;;
61572;SDS011;47465;43.094;12.434;2022-09-14T14:01:07;11.52;;;4.05;;
61572;SDS011;47465;43.094;12.434;2022-09-14T14:03:35;6.95;;;3.70;;
61572;SDS011;47465;43.094;12.434;2022-09-14T14:06:17;9.25;;;3.63;;
61572;SDS011;47465;43.094;12.434;2022-09-14T14:08:50;11.30;;;4.03;;
61572;SDS011;47465;43.094;12.434;2022-09-14T14:11:28;10.27;;;4.15;;
61572;SDS011;47465;43.094;12.434;2022-09-14T14:14:08;8.32;;;4.30;;
61572;SDS011;47465;43.094;12.434;2022-09-14T14:16:36;8.68;;;3.97;;
61572;SDS011;47465;43.094;12.434;2022-09-14T14:19:03;10.57;;;4.15;;
61572;SDS011;47465;43.094;12.434;2022-09-14T14:21:29;8.82;;;3.80;;
61572;SDS011;47465;43.094;12.434;2022-09-14T14:26:51;8.00;;;4.03;;
61572;SDS011;47465;43.094;12.434;2022-09-14T14:29:19;9.93;;;3.97;;
61572;SDS011;47465;43.094;12.434;2022-09-14T14:31:46;10.60;;;3.90;;
61572;SDS011;47465;43.094;12.434;2022-09-14T14:34:17;8.75;;;4.03;;
61572;SDS011;47465;43.094;12.434;2022-09-14T14:36:45;7.63;;;3.80;;
61572;SDS011;47465;43.094;12.434;2022-09-14T14:39:14;9.98;;;4.18;;
61572;SDS011;47465;43.094;12.434;2022-09-14T14:41:40;8.07;;;3.63;;
61572;SDS011;47465;43.094;12.434;2022-09-14T14:44:07;9.82;;;4.00;;
61572;SDS011;47465;43.094;12.434;2022-09-14T14:46:36;7.53;;;3.75;;
61572;SDS011;47465;43.094;12.434;2022-09-14T14:49:02;9.75;;;3.88;;
61572;SDS011;47465;43.094;12.434;2022-09-14T14:51:29;7.18;;;3.67;;
61572;SDS011;47465;43.094;12.434;2022-09-14T14:53:55;12.32;;;4.10;;
61572;SDS011;47465;43.094;12.434;2022-09-14T14:56:20;9.50;;;3.90;;
61572;SDS011;47465;43.094;12.434;2022-09-14T14:58:47;10.88;;;4.25;;
61572;SDS011;47465;43.094;12.434;2022-09-14T15:01:12;8.35;;;3.85;;
61572;SDS011;47465;43.094;12.434;2022-09-14T15:03:40;9.73;;;3.95;;
61572;SDS011;47465;43.094;12.434;2022-09-14T15:06:12;7.47;;;3.30;;
61572;SDS011;47465;43.094;12.434;2022-09-14T15:08:41;7.03;;;3.85;;
61572;SDS011;47465;43.094;12.434;2022-09-14T15:11:08;10.38;;;3.47;;
61572;SDS011;47465;43.094;12.434;2022-09-14T15:13:38;7.85;;;3.78;;
61572;SDS011;47465;43.094;12.434;2022-09-14T15:16:04;6.30;;;3.63;;
61572;SDS011;47465;43.094;12.434;2022-09-14T15:18:30;8.15;;;3.78;;
61572;SDS011;47465;43.094;12.434;2022-09-14T15:20:56;10.35;;;3.95;;
61572;SDS011;47465;43.094;12.434;2022-09-14T15:23:22;16.70;;;3.97;;
61572;SDS011;47465;43.094;12.434;2022-09-14T15:25:50;7.68;;;3.63;;
61572;SDS011;47465;43.094;12.434;2022-09-14T15:28:16;7.10;;;3.55;;